sensor_id;sensor_type;location;lat;lon;timestamp;temperature;humidity
9820;DHT22;4949;48.482;9.206;2023-08-01T00:03:51;19.50;72.00
9820;DHT22;4949;48.482;9.206;2023-08-01T00:08:52;19.80;72.80
9820;DHT22;4949;48.482;9.206;2023-08-01T00:13:52;19.90;72.40
9820;DHT22;4949;48.482;9.206;2023-08-01T00:18:55;20.00;71.70
9820;DHT22;4949;48.482;9.206;2023-08-01T00:23:56;20.00;70.40
9820;DHT22;4949;48.482;9.206;2023-08-01T00:28:57;20.10;71.20
9820;DHT22;4949;48.482;9.206;2023-08-01T00:34:00;20.20;70.30
9820;DHT22;4949;48.482;9.206;2023-08-01T00:39:00;20.20;69.80
9820;DHT22;4949;48.482;9.206;2023-08-01T00:44:01;20.10;70.30
9820;DHT22;4949;48.482;9.206;2023-08-01T00:49:02;20.20;69.60
9820;DHT22;4949;48.482;9.206;2023-08-01T00:54:06;20.20;68.90
9820;DHT22;4949;48.482;9.206;2023-08-01T00:59:09;20.40;67.90
9820;DHT22;4949;48.482;9.206;2023-08-01T01:04:09;20.50;68.20
9820;DHT22;4949;48.482;9.206;2023-08-01T01:09:17;20.50;68.00
9820;DHT22;4949;48.482;9.206;2023-08-01T01:14:18;20.50;68.30
9820;DHT22;4949;48.482;9.206;2023-08-01T01:19:19;20.60;68.00
9820;DHT22;4949;48.482;9.206;2023-08-01T01:24:21;20.60;68.30
9820;DHT22;4949;48.482;9.206;2023-08-01T01:29:23;20.60;68.00
9820;DHT22;4949;48.482;9.206;2023-08-01T01:34:25;20.70;67.80
9820;DHT22;4949;48.482;9.206;2023-08-01T01:39:25;20.70;68.20
9820;DHT22;4949;48.482;9.206;2023-08-01T01:44:29;20.70;69.10
9820;DHT22;4949;48.482;9.206;2023-08-01T01:49:29;20.60;70.30
9820;DHT22;4949;48.482;9.206;2023-08-01T01:54:35;20.60;69.80
9820;DHT22;4949;48.482;9.206;2023-08-01T01:59:35;20.50;70.90
9820;DHT22;4949;48.482;9.206;2023-08-01T02:04:41;20.50;70.70
9820;DHT22;4949;48.482;9.206;2023-08-01T02:09:48;20.50;70.10
9820;DHT22;4949;48.482;9.206;2023-08-01T02:14:49;20.50;70.60
9820;DHT22;4949;48.482;9.206;2023-08-01T02:19:49;20.50;69.80
9820;DHT22;4949;48.482;9.206;2023-08-01T02:24:50;20.50;69.50
9820;DHT22;4949;48.482;9.206;2023-08-01T02:29:51;20.60;69.20
9820;DHT22;4949;48.482;9.206;2023-08-01T02:34:52;20.60;69.70
9820;DHT22;4949;48.482;9.206;2023-08-01T02:39:52;20.50;70.20
9820;DHT22;4949;48.482;9.206;2023-08-01T02:44:53;20.60;70.10
9820;DHT22;4949;48.482;9.206;2023-08-01T02:49:54;20.60;70.60
9820;DHT22;4949;48.482;9.206;2023-08-01T02:54:54;20.60;70.90
9820;DHT22;4949;48.482;9.206;2023-08-01T02:59:57;20.60;70.50
9820;DHT22;4949;48.482;9.206;2023-08-01T03:04:59;20.50;70.80
9820;DHT22;4949;48.482;9.206;2023-08-01T03:10:00;20.50;70.50
9820;DHT22;4949;48.482;9.206;2023-08-01T03:15:01;20.50;70.40
9820;DHT22;4949;48.482;9.206;2023-08-01T03:20:05;20.50;70.00
9820;DHT22;4949;48.482;9.206;2023-08-01T03:25:11;20.50;69.80
9820;DHT22;4949;48.482;9.206;2023-08-01T03:30:11;20.50;69.70
9820;DHT22;4949;48.482;9.206;2023-08-01T03:35:12;20.50;69.70
9820;DHT22;4949;48.482;9.206;2023-08-01T03:40:15;20.50;70.00
9820;DHT22;4949;48.482;9.206;2023-08-01T03:45:16;20.50;69.80
9820;DHT22;4949;48.482;9.206;2023-08-01T03:50:17;20.60;69.90
9820;DHT22;4949;48.482;9.206;2023-08-01T03:55:20;20.60;69.50
9820;DHT22;4949;48.482;9.206;2023-08-01T04:00:21;20.50;69.80
9820;DHT22;4949;48.482;9.206;2023-08-01T04:05:22;20.60;69.50
9820;DHT22;4949;48.482;9.206;2023-08-01T04:10:24;20.50;69.60
9820;DHT22;4949;48.482;9.206;2023-08-01T04:15:28;20.60;69.00
9820;DHT22;4949;48.482;9.206;2023-08-01T04:20:31;20.50;69.30
9820;DHT22;4949;48.482;9.206;2023-08-01T04:25:34;20.40;69.30
9820;DHT22;4949;48.482;9.206;2023-08-01T04:30:35;20.40;69.30
9820;DHT22;4949;48.482;9.206;2023-08-01T04:35:38;20.50;68.90
9820;DHT22;4949;48.482;9.206;2023-08-01T04:40:41;20.50;69.10
9820;DHT22;4949;48.482;9.206;2023-08-01T04:45:42;20.50;69.40
9820;DHT22;4949;48.482;9.206;2023-08-01T04:50:42;20.50;68.90
9820;DHT22;4949;48.482;9.206;2023-08-01T04:55:45;20.50;68.40
9820;DHT22;4949;48.482;9.206;2023-08-01T05:00:46;20.50;67.70
9820;DHT22;4949;48.482;9.206;2023-08-01T05:05:49;20.50;65.70
9820;DHT22;4949;48.482;9.206;2023-08-01T05:10:53;20.50;64.80
9820;DHT22;4949;48.482;9.206;2023-08-01T05:15:53;20.50;63.70
9820;DHT22;4949;48.482;9.206;2023-08-01T05:20:54;20.60;62.70
9820;DHT22;4949;48.482;9.206;2023-08-01T05:25:55;20.60;61.80
9820;DHT22;4949;48.482;9.206;2023-08-01T05:30:58;20.60;60.80
9820;DHT22;4949;48.482;9.206;2023-08-01T05:35:59;20.60;60.50
9820;DHT22;4949;48.482;9.206;2023-08-01T05:40:59;20.70;60.30
9820;DHT22;4949;48.482;9.206;2023-08-01T05:46:00;20.80;59.00
9820;DHT22;4949;48.482;9.206;2023-08-01T05:51:03;20.90;58.40
9820;DHT22;4949;48.482;9.206;2023-08-01T05:56:04;20.90;58.70
9820;DHT22;4949;48.482;9.206;2023-08-01T06:01:05;20.80;59.10
9820;DHT22;4949;48.482;9.206;2023-08-01T06:06:06;20.90;59.70
9820;DHT22;4949;48.482;9.206;2023-08-01T06:11:07;20.80;59.70
9820;DHT22;4949;48.482;9.206;2023-08-01T06:16:10;20.80;60.40
9820;DHT22;4949;48.482;9.206;2023-08-01T06:21:11;20.70;61.40
9820;DHT22;4949;48.482;9.206;2023-08-01T06:26:12;20.60;63.20
9820;DHT22;4949;48.482;9.206;2023-08-01T06:31:13;20.60;64.10
9820;DHT22;4949;48.482;9.206;2023-08-01T06:36:13;20.50;64.30
9820;DHT22;4949;48.482;9.206;2023-08-01T06:41:17;20.40;64.50
9820;DHT22;4949;48.482;9.206;2023-08-01T06:46:18;20.30;64.90
9820;DHT22;4949;48.482;9.206;2023-08-01T06:51:19;20.20;65.30
9820;DHT22;4949;48.482;9.206;2023-08-01T06:56:19;20.20;65.10
9820;DHT22;4949;48.482;9.206;2023-08-01T07:01:21;20.20;65.60
9820;DHT22;4949;48.482;9.206;2023-08-01T07:06:23;20.10;65.50
9820;DHT22;4949;48.482;9.206;2023-08-01T07:11:26;20.40;64.80
9820;DHT22;4949;48.482;9.206;2023-08-01T07:16:27;20.20;65.00
9820;DHT22;4949;48.482;9.206;2023-08-01T07:21:28;20.30;65.40
9820;DHT22;4949;48.482;9.206;2023-08-01T07:26:29;20.10;67.10
9820;DHT22;4949;48.482;9.206;2023-08-01T07:31:30;20.10;67.40
9820;DHT22;4949;48.482;9.206;2023-08-01T07:36:34;20.20;68.10
9820;DHT22;4949;48.482;9.206;2023-08-01T07:41:34;20.20;67.90
9820;DHT22;4949;48.482;9.206;2023-08-01T07:46:37;20.10;68.50
9820;DHT22;4949;48.482;9.206;2023-08-01T07:51:38;20.20;68.50
9820;DHT22;4949;48.482;9.206;2023-08-01T07:56:39;20.30;68.80
9820;DHT22;4949;48.482;9.206;2023-08-01T08:01:44;20.20;69.30
9820;DHT22;4949;48.482;9.206;2023-08-01T08:06:47;20.10;69.80
9820;DHT22;4949;48.482;9.206;2023-08-01T08:11:50;20.00;70.90
9820;DHT22;4949;48.482;9.206;2023-08-01T08:16:52;20.00;72.20
9820;DHT22;4949;48.482;9.206;2023-08-01T08:21:55;19.80;74.60
9820;DHT22;4949;48.482;9.206;2023-08-01T08:26:55;19.80;76.90
9820;DHT22;4949;48.482;9.206;2023-08-01T08:31:59;19.50;79.20
9820;DHT22;4949;48.482;9.206;2023-08-01T08:36:59;19.40;81.90
9820;DHT22;4949;48.482;9.206;2023-08-01T08:42:00;19.20;82.90
9820;DHT22;4949;48.482;9.206;2023-08-01T08:47:03;19.00;85.00
9820;DHT22;4949;48.482;9.206;2023-08-01T08:52:07;19.00;86.80
9820;DHT22;4949;48.482;9.206;2023-08-01T08:57:08;18.90;85.90
9820;DHT22;4949;48.482;9.206;2023-08-01T09:02:09;18.80;86.30
9820;DHT22;4949;48.482;9.206;2023-08-01T09:07:14;18.70;87.70
9820;DHT22;4949;48.482;9.206;2023-08-01T09:12:26;18.50;88.90
9820;DHT22;4949;48.482;9.206;2023-08-01T09:17:27;18.60;87.90
9820;DHT22;4949;48.482;9.206;2023-08-01T09:22:27;18.50;88.90
9820;DHT22;4949;48.482;9.206;2023-08-01T09:27:33;18.60;88.20
9820;DHT22;4949;48.482;9.206;2023-08-01T09:32:33;18.60;88.50
9820;DHT22;4949;48.482;9.206;2023-08-01T09:37:42;18.70;87.30
9820;DHT22;4949;48.482;9.206;2023-08-01T09:42:45;18.90;88.30
9820;DHT22;4949;48.482;9.206;2023-08-01T09:47:48;19.00;87.60
9820;DHT22;4949;48.482;9.206;2023-08-01T09:52:49;19.10;87.60
9820;DHT22;4949;48.482;9.206;2023-08-01T09:57:56;19.20;87.80
9820;DHT22;4949;48.482;9.206;2023-08-01T10:02:58;19.20;87.00
9820;DHT22;4949;48.482;9.206;2023-08-01T10:08:04;19.40;85.90
9820;DHT22;4949;48.482;9.206;2023-08-01T10:13:05;19.20;86.70
9820;DHT22;4949;48.482;9.206;2023-08-01T10:18:06;19.10;88.80
9820;DHT22;4949;48.482;9.206;2023-08-01T10:23:08;18.80;90.30
9820;DHT22;4949;48.482;9.206;2023-08-01T10:28:12;18.60;91.40
9820;DHT22;4949;48.482;9.206;2023-08-01T10:33:13;18.50;92.90
9820;DHT22;4949;48.482;9.206;2023-08-01T10:38:14;18.50;92.90
9820;DHT22;4949;48.482;9.206;2023-08-01T10:43:24;18.50;92.80
9820;DHT22;4949;48.482;9.206;2023-08-01T10:48:25;18.50;93.10
9820;DHT22;4949;48.482;9.206;2023-08-01T10:53:36;18.60;92.90
9820;DHT22;4949;48.482;9.206;2023-08-01T10:58:38;18.60;92.90
9820;DHT22;4949;48.482;9.206;2023-08-01T11:03:42;18.80;93.20
9820;DHT22;4949;48.482;9.206;2023-08-01T11:08:42;18.90;92.50
9820;DHT22;4949;48.482;9.206;2023-08-01T11:13:52;19.00;92.10
9820;DHT22;4949;48.482;9.206;2023-08-01T11:18:53;19.10;92.00
9820;DHT22;4949;48.482;9.206;2023-08-01T11:23:54;19.20;91.30
9820;DHT22;4949;48.482;9.206;2023-08-01T11:29:01;19.50;91.00
9820;DHT22;4949;48.482;9.206;2023-08-01T11:34:03;19.80;90.80
9820;DHT22;4949;48.482;9.206;2023-08-01T11:39:04;20.10;90.80
9820;DHT22;4949;48.482;9.206;2023-08-01T11:44:08;20.20;90.30
9820;DHT22;4949;48.482;9.206;2023-08-01T11:49:14;20.20;89.60
9820;DHT22;4949;48.482;9.206;2023-08-01T11:54:15;20.40;89.10
9820;DHT22;4949;48.482;9.206;2023-08-01T11:59:17;20.40;87.90
9820;DHT22;4949;48.482;9.206;2023-08-01T12:04:27;20.20;86.50
9820;DHT22;4949;48.482;9.206;2023-08-01T12:09:31;20.40;86.60
9820;DHT22;4949;48.482;9.206;2023-08-01T12:14:33;20.60;85.00
9820;DHT22;4949;48.482;9.206;2023-08-01T12:19:34;21.00;82.00
9820;DHT22;4949;48.482;9.206;2023-08-01T12:24:37;21.20;81.00
9820;DHT22;4949;48.482;9.206;2023-08-01T12:29:38;21.30;77.70
9820;DHT22;4949;48.482;9.206;2023-08-01T12:34:41;21.20;74.70
9820;DHT22;4949;48.482;9.206;2023-08-01T12:39:46;21.50;75.40
9820;DHT22;4949;48.482;9.206;2023-08-01T12:44:47;21.70;74.60
9820;DHT22;4949;48.482;9.206;2023-08-01T12:49:48;21.70;73.90
9820;DHT22;4949;48.482;9.206;2023-08-01T12:54:50;21.60;72.80
9820;DHT22;4949;48.482;9.206;2023-08-01T12:59:51;21.50;72.40
9820;DHT22;4949;48.482;9.206;2023-08-01T13:04:52;21.50;71.30
9820;DHT22;4949;48.482;9.206;2023-08-01T13:09:55;21.40;69.50
9820;DHT22;4949;48.482;9.206;2023-08-01T13:14:56;21.40;71.60
9820;DHT22;4949;48.482;9.206;2023-08-01T13:19:56;21.30;70.90
9820;DHT22;4949;48.482;9.206;2023-08-01T13:24:58;21.50;70.80
9820;DHT22;4949;48.482;9.206;2023-08-01T13:29:58;21.80;68.30
9820;DHT22;4949;48.482;9.206;2023-08-01T13:34:59;22.10;68.00
9820;DHT22;4949;48.482;9.206;2023-08-01T13:40:00;22.50;64.10
9820;DHT22;4949;48.482;9.206;2023-08-01T13:45:01;22.70;61.90
9820;DHT22;4949;48.482;9.206;2023-08-01T13:50:02;22.90;60.30
9820;DHT22;4949;48.482;9.206;2023-08-01T13:55:03;22.90;59.00
9820;DHT22;4949;48.482;9.206;2023-08-01T14:00:05;22.90;59.40
9820;DHT22;4949;48.482;9.206;2023-08-01T14:05:07;22.80;59.80
9820;DHT22;4949;48.482;9.206;2023-08-01T14:10:10;23.20;58.60
9820;DHT22;4949;48.482;9.206;2023-08-01T14:15:11;23.40;57.20
9820;DHT22;4949;48.482;9.206;2023-08-01T14:20:14;23.50;57.10
9820;DHT22;4949;48.482;9.206;2023-08-01T14:25:15;23.50;57.60
9820;DHT22;4949;48.482;9.206;2023-08-01T14:30:19;23.80;56.50
9820;DHT22;4949;48.482;9.206;2023-08-01T14:35:19;23.70;57.20
9820;DHT22;4949;48.482;9.206;2023-08-01T14:40:23;23.50;55.00
9820;DHT22;4949;48.482;9.206;2023-08-01T14:45:24;23.70;54.30
9820;DHT22;4949;48.482;9.206;2023-08-01T14:50:25;23.60;53.80
9820;DHT22;4949;48.482;9.206;2023-08-01T14:55:28;23.70;53.40
9820;DHT22;4949;48.482;9.206;2023-08-01T15:00:29;23.80;54.30
9820;DHT22;4949;48.482;9.206;2023-08-01T15:05:30;23.60;54.70
9820;DHT22;4949;48.482;9.206;2023-08-01T15:10:31;23.40;55.80
9820;DHT22;4949;48.482;9.206;2023-08-01T15:15:37;23.60;54.60
9820;DHT22;4949;48.482;9.206;2023-08-01T15:20:38;23.90;54.20
9820;DHT22;4949;48.482;9.206;2023-08-01T15:25:56;23.90;53.30
9820;DHT22;4949;48.482;9.206;2023-08-01T15:31:04;23.80;53.70
9820;DHT22;4949;48.482;9.206;2023-08-01T15:36:09;24.00;54.50
9820;DHT22;4949;48.482;9.206;2023-08-01T15:41:12;24.30;54.80
9820;DHT22;4949;48.482;9.206;2023-08-01T15:46:13;24.40;53.90
9820;DHT22;4949;48.482;9.206;2023-08-01T15:51:14;24.60;52.10
9820;DHT22;4949;48.482;9.206;2023-08-01T15:56:19;24.30;51.90
9820;DHT22;4949;48.482;9.206;2023-08-01T16:01:20;23.90;52.80
9820;DHT22;4949;48.482;9.206;2023-08-01T16:06:20;23.40;54.40
9820;DHT22;4949;48.482;9.206;2023-08-01T16:11:23;23.20;55.60
9820;DHT22;4949;48.482;9.206;2023-08-01T16:16:27;23.10;56.40
9820;DHT22;4949;48.482;9.206;2023-08-01T16:21:27;23.20;56.20
9820;DHT22;4949;48.482;9.206;2023-08-01T16:26:31;23.20;55.20
9820;DHT22;4949;48.482;9.206;2023-08-01T16:31:34;23.30;54.90
9820;DHT22;4949;48.482;9.206;2023-08-01T16:36:34;23.20;54.10
9820;DHT22;4949;48.482;9.206;2023-08-01T16:41:35;23.00;54.40
9820;DHT22;4949;48.482;9.206;2023-08-01T16:46:38;23.10;55.20
9820;DHT22;4949;48.482;9.206;2023-08-01T16:51:39;22.80;55.70
9820;DHT22;4949;48.482;9.206;2023-08-01T16:56:39;22.60;56.00
9820;DHT22;4949;48.482;9.206;2023-08-01T17:01:40;22.60;56.50
9820;DHT22;4949;48.482;9.206;2023-08-01T17:06:45;22.50;57.10
9820;DHT22;4949;48.482;9.206;2023-08-01T17:11:49;22.50;57.10
9820;DHT22;4949;48.482;9.206;2023-08-01T17:16:52;22.40;57.40
9820;DHT22;4949;48.482;9.206;2023-08-01T17:21:55;22.40;56.80
9820;DHT22;4949;48.482;9.206;2023-08-01T17:26:55;22.40;55.20
9820;DHT22;4949;48.482;9.206;2023-08-01T17:31:56;22.50;55.10
9820;DHT22;4949;48.482;9.206;2023-08-01T17:36:57;22.70;54.70
9820;DHT22;4949;48.482;9.206;2023-08-01T17:41:57;22.80;54.50
9820;DHT22;4949;48.482;9.206;2023-08-01T17:47:01;22.60;54.20
9820;DHT22;4949;48.482;9.206;2023-08-01T17:52:03;22.70;54.50
9820;DHT22;4949;48.482;9.206;2023-08-01T17:57:04;22.70;54.60
9820;DHT22;4949;48.482;9.206;2023-08-01T18:02:07;22.70;53.80
9820;DHT22;4949;48.482;9.206;2023-08-01T18:07:11;22.70;54.30
9820;DHT22;4949;48.482;9.206;2023-08-01T18:12:12;22.80;54.30
9820;DHT22;4949;48.482;9.206;2023-08-01T18:17:16;22.70;54.20
9820;DHT22;4949;48.482;9.206;2023-08-01T18:22:17;22.60;54.50
9820;DHT22;4949;48.482;9.206;2023-08-01T18:27:18;22.60;54.50
9820;DHT22;4949;48.482;9.206;2023-08-01T18:32:23;22.40;54.70
9820;DHT22;4949;48.482;9.206;2023-08-01T18:37:27;22.20;55.10
9820;DHT22;4949;48.482;9.206;2023-08-01T18:42:28;21.90;55.60
9820;DHT22;4949;48.482;9.206;2023-08-01T18:47:32;21.70;56.10
9820;DHT22;4949;48.482;9.206;2023-08-01T18:52:35;21.60;56.70
9820;DHT22;4949;48.482;9.206;2023-08-01T18:57:37;21.70;56.80
9820;DHT22;4949;48.482;9.206;2023-08-01T19:02:40;21.80;56.50
9820;DHT22;4949;48.482;9.206;2023-08-01T19:07:40;21.70;57.10
9820;DHT22;4949;48.482;9.206;2023-08-01T19:12:41;21.50;56.50
9820;DHT22;4949;48.482;9.206;2023-08-01T19:17:45;21.30;56.60
9820;DHT22;4949;48.482;9.206;2023-08-01T19:22:45;20.80;56.80
9820;DHT22;4949;48.482;9.206;2023-08-01T19:27:51;20.60;57.40
9820;DHT22;4949;48.482;9.206;2023-08-01T19:32:51;20.50;57.90
9820;DHT22;4949;48.482;9.206;2023-08-01T19:37:52;20.40;57.70
9820;DHT22;4949;48.482;9.206;2023-08-01T19:42:53;20.40;57.40
9820;DHT22;4949;48.482;9.206;2023-08-01T19:47:54;20.20;57.80
9820;DHT22;4949;48.482;9.206;2023-08-01T19:52:54;20.20;58.30
9820;DHT22;4949;48.482;9.206;2023-08-01T19:57:56;20.20;58.50
9820;DHT22;4949;48.482;9.206;2023-08-01T20:03:00;20.10;58.50
9820;DHT22;4949;48.482;9.206;2023-08-01T20:08:15;20.00;58.80
9820;DHT22;4949;48.482;9.206;2023-08-01T20:13:33;20.10;59.10
9820;DHT22;4949;48.482;9.206;2023-08-01T20:18:40;20.10;59.50
9820;DHT22;4949;48.482;9.206;2023-08-01T20:23:43;20.10;59.10
9820;DHT22;4949;48.482;9.206;2023-08-01T20:28:57;20.10;59.40
9820;DHT22;4949;48.482;9.206;2023-08-01T20:34:15;20.10;59.80
9820;DHT22;4949;48.482;9.206;2023-08-01T20:39:21;20.10;59.80
9820;DHT22;4949;48.482;9.206;2023-08-01T20:44:42;20.00;61.10
9820;DHT22;4949;48.482;9.206;2023-08-01T20:49:51;19.90;61.70
9820;DHT22;4949;48.482;9.206;2023-08-01T20:54:52;19.80;62.70
9820;DHT22;4949;48.482;9.206;2023-08-01T21:00:01;19.80;63.00
9820;DHT22;4949;48.482;9.206;2023-08-01T21:05:56;19.70;63.50
9820;DHT22;4949;48.482;9.206;2023-08-01T21:11:32;19.40;64.80
9820;DHT22;4949;48.482;9.206;2023-08-01T21:17:02;19.30;65.50
9820;DHT22;4949;48.482;9.206;2023-08-01T21:22:05;19.20;65.90
9820;DHT22;4949;48.482;9.206;2023-08-01T21:27:06;19.00;66.20
9820;DHT22;4949;48.482;9.206;2023-08-01T21:32:06;19.10;65.90
9820;DHT22;4949;48.482;9.206;2023-08-01T21:37:12;19.10;65.80
9820;DHT22;4949;48.482;9.206;2023-08-01T21:42:16;19.10;65.30
9820;DHT22;4949;48.482;9.206;2023-08-01T21:47:19;19.20;65.30
9820;DHT22;4949;48.482;9.206;2023-08-01T21:52:22;19.10;65.70
9820;DHT22;4949;48.482;9.206;2023-08-01T21:57:25;19.00;66.20
9820;DHT22;4949;48.482;9.206;2023-08-01T22:02:26;18.90;66.60
9820;DHT22;4949;48.482;9.206;2023-08-01T22:07:26;18.80;66.30
9820;DHT22;4949;48.482;9.206;2023-08-01T22:12:28;18.80;66.40
9820;DHT22;4949;48.482;9.206;2023-08-01T22:17:28;18.80;66.40
9820;DHT22;4949;48.482;9.206;2023-08-01T22:22:29;18.80;66.10
9820;DHT22;4949;48.482;9.206;2023-08-01T22:27:30;18.70;65.90
9820;DHT22;4949;48.482;9.206;2023-08-01T22:32:31;18.60;66.20
9820;DHT22;4949;48.482;9.206;2023-08-01T22:37:32;18.50;65.90
9820;DHT22;4949;48.482;9.206;2023-08-01T22:42:33;18.60;65.80
9820;DHT22;4949;48.482;9.206;2023-08-01T22:47:34;18.60;65.70
9820;DHT22;4949;48.482;9.206;2023-08-01T22:52:34;18.60;65.50
9820;DHT22;4949;48.482;9.206;2023-08-01T22:57:35;18.60;65.60
9820;DHT22;4949;48.482;9.206;2023-08-01T23:02:36;18.60;65.80
9820;DHT22;4949;48.482;9.206;2023-08-01T23:07:38;18.50;66.20
9820;DHT22;4949;48.482;9.206;2023-08-01T23:12:39;18.50;66.60
9820;DHT22;4949;48.482;9.206;2023-08-01T23:17:40;18.40;67.10
9820;DHT22;4949;48.482;9.206;2023-08-01T23:22:41;18.40;66.90
9820;DHT22;4949;48.482;9.206;2023-08-01T23:27:41;18.50;66.80
9820;DHT22;4949;48.482;9.206;2023-08-01T23:32:42;18.50;66.70
9820;DHT22;4949;48.482;9.206;2023-08-01T23:37:46;18.60;66.90
9820;DHT22;4949;48.482;9.206;2023-08-01T23:42:49;18.60;67.20
9820;DHT22;4949;48.482;9.206;2023-08-01T23:47:53;18.50;67.50
9820;DHT22;4949;48.482;9.206;2023-08-01T23:52:59;18.50;68.00
9820;DHT22;4949;48.482;9.206;2023-08-01T23:57:59;18.50;68.70
